createdAt,value
2022-12-09T00:00:10.710Z,99815.75
2022-12-09T00:02:40.805Z,99811.44
2022-12-09T00:05:10.756Z,99805.41
2022-12-09T00:07:39.405Z,99812.28
2022-12-09T00:10:09.412Z,99808.00
2022-12-09T00:12:38.426Z,99808.88
2022-12-09T00:15:07.786Z,99809.72
2022-12-09T00:17:36.809Z,99807.13
2022-12-09T00:20:09.023Z,99806.31
2022-12-09T00:22:37.909Z,99806.31
2022-12-09T00:25:07.267Z,99803.75
2022-12-09T00:27:35.871Z,99800.28
2022-12-09T00:30:05.766Z,99802.91
2022-12-09T00:32:34.871Z,99807.22
2022-12-09T00:35:04.434Z,99809.81
2022-12-09T00:37:35.046Z,99806.38
2022-12-09T00:40:04.307Z,99805.50
2022-12-09T00:42:32.775Z,99800.31
2022-12-09T00:45:01.925Z,99797.72
2022-12-09T00:47:30.617Z,99795.16
2022-12-09T00:49:59.439Z,99797.72
2022-12-09T00:52:28.433Z,99796.84
2022-12-09T00:54:58.193Z,99793.41
2022-12-09T00:57:26.759Z,99796.84
2022-12-09T00:59:54.968Z,99796.84
2022-12-09T01:02:23.629Z,99791.69
2022-12-09T01:04:53.236Z,99796.84
2022-12-09T01:07:22.054Z,99795.16
2022-12-09T01:09:50.818Z,99796.84
2022-12-09T01:12:20.627Z,99795.16
2022-12-09T01:14:49.141Z,99792.56
2022-12-09T01:17:17.963Z,99796.88
2022-12-09T01:19:46.651Z,99794.31
2022-12-09T01:22:14.960Z,99802.06
2022-12-09T01:24:43.216Z,99798.66
2022-12-09T01:27:11.763Z,99800.38
2022-12-09T01:29:41.333Z,99802.13
2022-12-09T01:32:09.627Z,99803.84
2022-12-09T01:34:38.284Z,99799.56
2022-12-09T01:37:06.922Z,99795.25
2022-12-09T01:39:35.615Z,99798.72
2022-12-09T01:42:05.421Z,99792.69
2022-12-09T01:44:35.756Z,99791.88
2022-12-09T01:47:05.622Z,99792.75
2022-12-09T01:49:43.206Z,99791.91
2022-12-09T01:52:20.303Z,99794.47
2022-12-09T01:54:52.248Z,99783.28
2022-12-09T01:57:21.698Z,99791.94
2022-12-09T01:59:52.773Z,99776.44
2022-12-09T02:02:23.739Z,99776.44
2022-12-09T02:04:52.683Z,99779.88
2022-12-09T02:07:21.651Z,99775.59
2022-12-09T02:09:53.538Z,99766.16
2022-12-09T02:12:42.222Z,99769.63
2022-12-09T02:15:19.155Z,99764.47
2022-12-09T02:17:55.644Z,99769.69
2022-12-09T02:20:30.598Z,99767.97
2022-12-09T02:23:06.976Z,99771.44
2022-12-09T02:25:44.594Z,99773.16
2022-12-09T02:28:39.141Z,99769.72
2022-12-09T02:31:25.705Z,99774.03
2022-12-09T02:34:16.138Z,99768.88
2022-12-09T02:36:59.020Z,99760.28
2022-12-09T02:39:34.993Z,99753.38
2022-12-09T02:42:07.789Z,99748.25
2022-12-09T02:44:39.596Z,99753.41
2022-12-09T02:47:14.598Z,99748.25
2022-12-09T02:49:47.899Z,99747.41
2022-12-09T02:52:18.373Z,99740.53
2022-12-09T02:54:48.273Z,99736.22
2022-12-09T02:57:25.398Z,99732.78
2022-12-09T02:59:53.859Z,99728.50
2022-12-09T03:02:29.477Z,99727.63
2022-12-09T03:05:12.639Z,99720.78
2022-12-09T03:07:47.932Z,99719.91
2022-12-09T03:10:24.367Z,99718.19
2022-12-09T03:13:03.866Z,99715.59
2022-12-09T03:15:36.631Z,99711.31
2022-12-09T03:18:11.819Z,99713.91
2022-12-09T03:20:44.704Z,99711.31
2022-12-09T03:23:17.452Z,99701.00
2022-12-09T03:25:50.141Z,99701.00
2022-12-09T03:28:22.934Z,99693.25
2022-12-09T03:30:54.535Z,99698.41
2022-12-09T03:33:25.480Z,99699.25
2022-12-09T03:35:59.797Z,99694.13
2022-12-09T03:38:34.363Z,99702.72
2022-12-09T03:41:11.682Z,99694.09
2022-12-09T03:43:48.203Z,99696.69
2022-12-09T03:46:17.031Z,99688.09
2022-12-09T03:48:45.974Z,99695.84
2022-12-09T03:51:20.420Z,99688.94
2022-12-09T03:53:52.804Z,99691.53
2022-12-09T03:56:24.248Z,99692.38
2022-12-09T03:58:56.119Z,99692.38
2022-12-09T04:01:27.349Z,99684.63
2022-12-09T04:03:58.652Z,99685.47
2022-12-09T04:06:29.156Z,99683.78
2022-12-09T04:09:02.101Z,99690.63
2022-12-09T04:11:31.703Z,99687.19
2022-12-09T04:14:00.624Z,99683.75
2022-12-09T04:16:29.523Z,99687.19
2022-12-09T04:18:58.542Z,99682.03
2022-12-09T04:21:28.625Z,99684.59
2022-12-09T04:23:57.169Z,99675.97
2022-12-09T04:26:25.791Z,99678.53
2022-12-09T04:28:54.404Z,99689.72
2022-12-09T04:31:22.949Z,99684.56
2022-12-09T04:33:52.003Z,99682.00
2022-12-09T04:36:21.883Z,99682.00
2022-12-09T04:38:54.267Z,99680.25
2022-12-09T04:41:22.856Z,99678.50
2022-12-09T04:43:51.422Z,99677.66
2022-12-09T04:46:20.434Z,99677.66
2022-12-09T04:48:49.403Z,99678.50
2022-12-09T04:51:18.311Z,99669.91
2022-12-09T04:53:47.068Z,99671.63
2022-12-09T04:56:19.773Z,99675.09
2022-12-09T04:58:49.951Z,99666.53
2022-12-09T05:01:30.070Z,99666.53
2022-12-09T05:04:00.522Z,99663.97
2022-12-09T05:06:29.677Z,99663.09
2022-12-09T05:08:58.775Z,99662.25
2022-12-09T05:11:29.074Z,99668.25
2022-12-09T05:13:58.540Z,99666.56
2022-12-09T05:16:27.319Z,99659.66
2022-12-09T05:18:56.204Z,99663.13
2022-12-09T05:21:25.285Z,99657.97
2022-12-09T05:23:54.212Z,99651.97
2022-12-09T05:26:24.437Z,99655.41
2022-12-09T05:28:54.311Z,99651.09
2022-12-09T05:31:25.303Z,99648.53
2022-12-09T05:33:54.720Z,99644.25
2022-12-09T05:36:27.739Z,99639.94
2022-12-09T05:38:56.594Z,99630.50
2022-12-09T05:41:26.064Z,99634.78
2022-12-09T05:43:56.064Z,99630.50
2022-12-09T05:46:24.983Z,99633.94
2022-12-09T05:48:54.118Z,99639.09
2022-12-09T05:51:26.353Z,99653.69
2022-12-09T05:53:56.740Z,99643.38
2022-12-09T05:56:26.740Z,99638.19
2022-12-09T05:58:57.316Z,99637.34
2022-12-09T06:01:26.519Z,99635.63
2022-12-09T06:03:56.734Z,99635.63
2022-12-09T06:06:28.130Z,99630.47
2022-12-09T06:08:59.672Z,99632.19
2022-12-09T06:11:29.402Z,99627.88
2022-12-09T06:13:59.687Z,99621.88
2022-12-09T06:16:28.539Z,99620.16
2022-12-09T06:18:57.933Z,99617.56
2022-12-09T06:21:27.321Z,99613.25
2022-12-09T06:23:56.212Z,99617.53
2022-12-09T06:26:27.764Z,99620.13
2022-12-09T06:28:57.540Z,99616.69
2022-12-09T06:31:29.113Z,99618.38
2022-12-09T06:33:59.629Z,99625.25
2022-12-09T06:36:30.519Z,99621.81
2022-12-09T06:39:09.717Z,99623.53
2022-12-09T06:41:41.420Z,99617.53
2022-12-09T06:44:11.894Z,99614.94
2022-12-09T06:46:42.874Z,99616.66
2022-12-09T06:49:11.832Z,99618.38
2022-12-09T06:51:40.504Z,99614.06
2022-12-09T06:54:09.726Z,99616.66
2022-12-09T06:56:38.577Z,99608.91
2022-12-09T06:59:11.386Z,99595.19
2022-12-09T07:01:42.036Z,99608.06
2022-12-09T07:04:15.039Z,99602.91
2022-12-09T07:06:46.968Z,99607.19
2022-12-09T07:09:18.060Z,99609.75
2022-12-09T07:11:48.218Z,99608.03
2022-12-09T07:14:18.338Z,99614.06
2022-12-09T07:16:48.945Z,99613.19
2022-12-09T07:19:20.654Z,99615.75
2022-12-09T07:21:50.859Z,99618.31
2022-12-09T07:24:20.586Z,99610.59
2022-12-09T07:26:50.832Z,99609.72
2022-12-09T07:29:20.097Z,99616.63
2022-12-09T07:31:50.434Z,99620.94
2022-12-09T07:34:19.490Z,99616.63
2022-12-09T07:36:48.181Z,99618.34
2022-12-09T07:39:19.318Z,99613.19
2022-12-09T07:41:52.075Z,99615.75
2022-12-09T07:44:21.087Z,99611.47
2022-12-09T07:46:51.546Z,99608.91
2022-12-09T07:49:20.250Z,99604.59
2022-12-09T07:51:48.956Z,99601.19
2022-12-09T07:54:20.545Z,99607.19
2022-12-09T07:56:49.535Z,99608.91
2022-12-09T07:59:18.485Z,99609.78
2022-12-09T08:01:47.333Z,99607.22
2022-12-09T08:04:17.238Z,99602.09
2022-12-09T08:06:46.516Z,99603.78
2022-12-09T08:09:15.906Z,99607.25
2022-12-09T08:11:44.753Z,99608.97
2022-12-09T08:14:14.277Z,99602.09
2022-12-09T08:16:44.139Z,99597.81
2022-12-09T08:19:13.985Z,99597.81
2022-12-09T08:21:47.281Z,99602.97
2022-12-09T08:24:18.460Z,99608.16
2022-12-09T08:26:47.322Z,99606.41
2022-12-09T08:29:16.337Z,99599.53
2022-12-09T08:31:45.790Z,99606.41
2022-12-09T08:34:16.023Z,99596.91
2022-12-09T08:36:45.937Z,99592.56
2022-12-09T08:39:15.824Z,99600.31
2022-12-09T08:41:45.652Z,99594.22
2022-12-09T08:44:16.511Z,99586.47
2022-12-09T08:46:50.985Z,99583.84
2022-12-09T08:49:22.255Z,99582.94
2022-12-09T08:51:54.500Z,99587.25
2022-12-09T08:54:23.247Z,99574.31
2022-12-09T08:56:55.609Z,99576.88
2022-12-09T08:59:25.474Z,99577.69
2022-12-09T09:01:54.548Z,99575.97
2022-12-09T09:04:24.193Z,99575.09
2022-12-09T09:06:54.903Z,99573.34
2022-12-09T09:09:23.751Z,99571.63
2022-12-09T09:11:53.261Z,99573.31
2022-12-09T09:14:22.189Z,99576.72
2022-12-09T09:16:50.866Z,99571.53
2022-12-09T09:19:23.419Z,99569.75
2022-12-09T09:21:54.000Z,99567.94
2022-12-09T09:24:25.380Z,99562.69
2022-12-09T09:26:54.771Z,99567.81
2022-12-09T09:29:24.831Z,99574.59
2022-12-09T09:31:55.333Z,99567.59
2022-12-09T09:34:25.396Z,99568.31
2022-12-09T09:36:57.631Z,99570.78
2022-12-09T09:39:26.615Z,99564.59
2022-12-09T09:42:04.410Z,99551.50
2022-12-09T09:44:41.132Z,99556.59
2022-12-09T09:47:18.258Z,99547.03
2022-12-09T09:49:54.642Z,99548.69
2022-12-09T09:52:27.645Z,99545.25
2022-12-09T09:54:57.260Z,99542.63
2022-12-09T09:57:33.955Z,99542.50
2022-12-09T10:00:19.281Z,99547.50
2022-12-09T10:03:00.265Z,99547.28
2022-12-09T10:05:33.620Z,99540.16
2022-12-09T10:08:34.781Z,99539.94
2022-12-09T10:11:18.188Z,99532.75
2022-12-09T10:13:55.491Z,99528.22
2022-12-09T10:16:30.908Z,99526.19
2022-12-09T10:19:09.212Z,99526.81
2022-12-09T10:21:44.302Z,99528.41
2022-12-09T10:24:24.211Z,99527.44
2022-12-09T10:27:06.887Z,99515.78
2022-12-09T10:29:52.870Z,99523.19
2022-12-09T10:32:25.729Z,99523.69
2022-12-09T10:34:55.166Z,99510.91
2022-12-09T10:37:31.503Z,99511.72
2022-12-09T10:40:30.980Z,99517.53
2022-12-09T10:43:17.840Z,99506.84
2022-12-09T10:48:44.599Z,99507.88
2022-12-09T10:51:17.641Z,99503.81
2022-12-09T10:53:49.688Z,99500.63
2022-12-09T10:56:24.380Z,99499.44
2022-12-09T10:59:12.117Z,99499.97
2022-12-09T11:01:51.756Z,99493.50
2022-12-09T11:04:28.595Z,99488.84
2022-12-09T11:07:02.148Z,99495.47
2022-12-09T11:09:33.498Z,99487.00
2022-12-09T11:12:07.796Z,99486.38
2022-12-09T11:14:39.862Z,99484.16
2022-12-09T11:17:18.671Z,99492.88
2022-12-09T11:19:51.813Z,99490.78
2022-12-09T11:22:36.553Z,99485.94
2022-12-09T11:25:27.224Z,99482.47
2022-12-09T11:27:59.829Z,99491.25
2022-12-09T11:30:32.637Z,99478.41
2022-12-09T11:33:20.503Z,99474.03
2022-12-09T11:36:01.873Z,99473.97
2022-12-09T11:38:37.744Z,99474.44
2022-12-09T11:41:37.332Z,99464.94
2022-12-09T11:44:25.838Z,99466.91
2022-12-09T11:47:01.550Z,99466.44
2022-12-09T11:49:33.052Z,99455.34
2022-12-09T11:52:07.488Z,99456.72
2022-12-09T11:54:48.471Z,99462.44
2022-12-09T11:57:28.303Z,99450.72
2022-12-09T12:00:06.905Z,99450.22
2022-12-09T12:02:41.964Z,99443.75
2022-12-09T12:05:22.711Z,99445.88
2022-12-09T12:08:02.241Z,99455.03
2022-12-09T12:10:35.896Z,99450.34
2022-12-09T12:13:16.266Z,99452.59
2022-12-09T12:15:53.156Z,99456.47
2022-12-09T12:18:23.706Z,99453.47
2022-12-09T12:21:20.632Z,99443.75
2022-12-09T12:24:44.781Z,99446.09
2022-12-09T12:27:32.347Z,99460.56
2022-12-09T12:30:09.405Z,99455.97
2022-12-09T12:36:04.445Z,99457.31
2022-12-09T12:38:51.522Z,99462.00
2022-12-09T12:41:36.244Z,99457.88
2022-12-09T12:44:52.978Z,99464.31
2022-12-09T12:47:29.503Z,99461.22
2022-12-09T12:50:25.131Z,99458.03
2022-12-09T12:53:01.803Z,99457.34
2022-12-09T12:55:48.866Z,99455.75
2022-12-09T12:58:34.623Z,99451.66
2022-12-09T13:01:13.769Z,99457.09
2022-12-09T13:03:54.337Z,99459.88
2022-12-09T13:06:36.466Z,99459.09
2022-12-09T13:09:12.641Z,99456.63
2022-12-09T13:11:56.263Z,99460.19
2022-12-09T13:14:40.959Z,99455.91
2022-12-09T13:17:14.900Z,99452.47
2022-12-09T13:19:48.299Z,99442.91
2022-12-09T13:22:23.027Z,99449.84
2022-12-09T13:25:01.753Z,99451.53
2022-12-09T13:27:38.457Z,99448.06
2022-12-09T13:30:13.132Z,99438.63
2022-12-09T13:33:05.490Z,99435.13
2022-12-09T13:35:43.748Z,99435.06
2022-12-09T13:38:33.597Z,99437.66
2022-12-09T13:41:22.203Z,99435.91
2022-12-09T13:43:51.896Z,99439.41
2022-12-09T13:46:23.645Z,99431.53
2022-12-09T13:48:52.804Z,99421.94
2022-12-09T13:51:22.016Z,99431.50
2022-12-09T13:54:02.245Z,99437.59
2022-12-09T13:56:34.098Z,99438.69
2022-12-09T13:59:42.658Z,99444.91
2022-12-09T14:02:24.925Z,99436.41
2022-12-09T14:05:06.586Z,99439.19
2022-12-09T14:07:41.759Z,99436.72
2022-12-09T14:10:39.890Z,99445.50
2022-12-09T14:13:29.710Z,99435.22
2022-12-09T14:16:32.930Z,99430.09
2022-12-09T14:19:52.665Z,99439.69
2022-12-09T14:22:40.092Z,99440.59
2022-12-09T14:25:54.767Z,99440.66
2022-12-09T14:29:01.006Z,99445.91
2022-12-09T14:32:01.671Z,99444.25
2022-12-09T14:34:43.853Z,99442.59
2022-12-09T14:37:41.529Z,99450.44
2022-12-09T14:40:51.880Z,99456.56
2022-12-09T14:44:04.098Z,99465.25
2022-12-09T14:46:35.066Z,99467.06
2022-12-09T14:49:13.264Z,99467.06
2022-12-09T14:51:47.914Z,99472.28
2022-12-09T14:54:20.541Z,99481.88
2022-12-09T14:56:52.216Z,99475.06
2022-12-09T14:59:23.164Z,99488.06
2022-12-09T15:01:57.887Z,99483.81
2022-12-09T15:04:32.697Z,99481.28
2022-12-09T15:07:13.773Z,99484.78
2022-12-09T15:09:58.867Z,99479.69
2022-12-09T15:12:32.246Z,99483.19
2022-12-09T15:15:07.695Z,99484.97
2022-12-09T15:17:43.191Z,99488.50
2022-12-09T15:20:28.363Z,99486.81
2022-12-09T15:23:00.140Z,99490.28
2022-12-09T15:25:30.094Z,99495.53
2022-12-09T15:28:02.057Z,99493.81
2022-12-09T15:30:34.481Z,99497.25
2022-12-09T15:33:03.737Z,99499.03
2022-12-09T15:35:34.421Z,99495.59
2022-12-09T15:38:07.387Z,99503.38
2022-12-09T15:40:58.975Z,99500.00
2022-12-09T15:43:27.575Z,99512.09
2022-12-09T15:45:56.269Z,99510.41
2022-12-09T15:48:31.181Z,99513.88
2022-12-09T15:51:02.877Z,99512.19
2022-12-09T15:53:37.809Z,99508.75
2022-12-09T15:56:14.085Z,99516.50
2022-12-09T15:58:48.460Z,99519.97
2022-12-09T16:01:22.584Z,99522.56
2022-12-09T16:03:53.827Z,99513.06
2022-12-09T16:06:28.094Z,99509.63
2022-12-09T16:08:56.683Z,99522.59
2022-12-09T16:11:40.699Z,99529.56
2022-12-09T16:14:10.712Z,99528.72
2022-12-09T16:16:47.366Z,99526.13
2022-12-09T16:19:43.490Z,99525.28
2022-12-09T16:22:22.524Z,99525.22
2022-12-09T16:25:14.101Z,99530.41
2022-12-09T16:27:49.915Z,99527.00
2022-12-09T16:30:21.986Z,99530.44
2022-12-09T16:32:53.394Z,99533.94
2022-12-09T16:35:25.270Z,99533.94
2022-12-09T16:38:20.803Z,99523.59
2022-12-09T16:41:13.319Z,99518.47
2022-12-09T16:44:03.920Z,99520.22
2022-12-09T16:46:42.607Z,99510.72
2022-12-09T16:49:11.126Z,99524.56
2022-12-09T16:51:40.739Z,99527.16
2022-12-09T16:54:20.794Z,99528.03
2022-12-09T16:56:51.243Z,99527.16
2022-12-09T16:59:20.817Z,99527.16
2022-12-09T17:01:49.172Z,99532.34
2022-12-09T17:04:22.703Z,99523.69
2022-12-09T17:06:50.965Z,99529.75
2022-12-09T17:09:19.751Z,99532.34
2022-12-09T17:11:49.216Z,99540.13
2022-12-09T17:14:18.239Z,99537.56
2022-12-09T17:16:47.866Z,99528.91
2022-12-09T17:19:16.155Z,99532.38
2022-12-09T17:21:44.383Z,99529.78
2022-12-09T17:24:13.289Z,99525.47
2022-12-09T17:26:41.830Z,99529.78
2022-12-09T17:29:10.259Z,99532.38
2022-12-09T17:31:38.480Z,99539.31
2022-12-09T17:34:08.416Z,99527.25
2022-12-09T17:36:36.907Z,99538.44
2022-12-09T17:39:06.070Z,99542.78
2022-12-09T17:41:34.814Z,99549.66
2022-12-09T17:44:03.278Z,99550.56
2022-12-09T17:46:31.984Z,99549.69
2022-12-09T17:49:01.631Z,99561.78
2022-12-09T17:51:36.025Z,99558.31
2022-12-09T17:54:05.624Z,99558.38
2022-12-09T17:56:34.391Z,99560.94
2022-12-09T17:59:08.514Z,99560.94
2022-12-09T18:01:38.003Z,99573.94
2022-12-09T18:04:10.347Z,99575.72
2022-12-09T18:06:43.124Z,99574.84
2022-12-09T18:09:14.820Z,99568.81
2022-12-09T18:11:43.667Z,99571.44
2022-12-09T18:14:12.075Z,99570.63
2022-12-09T18:16:40.804Z,99571.47
2022-12-09T18:19:12.766Z,99575.84
2022-12-09T18:21:42.519Z,99577.59
2022-12-09T18:24:11.423Z,99581.91
2022-12-09T18:26:42.263Z,99571.59
2022-12-09T18:29:11.240Z,99577.63
2022-12-09T18:31:40.684Z,99577.66
2022-12-09T18:34:09.455Z,99581.13
2022-12-09T18:36:38.175Z,99576.78
2022-12-09T18:39:08.617Z,99577.69
2022-12-09T18:41:37.616Z,99578.56
2022-12-09T18:44:07.844Z,99582.88
2022-12-09T18:46:39.072Z,99589.81
2022-12-09T18:49:10.002Z,99582.03
2022-12-09T18:51:39.693Z,99585.50
2022-12-09T18:54:10.357Z,99584.66
2022-12-09T18:56:38.852Z,99598.47
2022-12-09T18:59:08.675Z,99585.53
2022-12-09T19:01:40.952Z,99588.16
2022-12-09T19:04:14.252Z,99595.94
2022-12-09T19:06:44.722Z,99586.44
2022-12-09T19:09:17.202Z,99593.38
2022-12-09T19:11:47.932Z,99590.78
2022-12-09T19:14:18.371Z,99595.97
2022-12-09T19:16:47.557Z,99592.53
2022-12-09T19:19:18.726Z,99603.75
2022-12-09T19:21:47.647Z,99608.94
2022-12-09T19:24:21.540Z,99603.75
2022-12-09T19:26:51.195Z,99612.38
2022-12-09T19:29:20.105Z,99617.56
2022-12-09T19:31:50.711Z,99610.69
2022-12-09T19:34:21.507Z,99606.34
2022-12-09T19:36:51.974Z,99608.09
2022-12-09T19:39:25.262Z,99599.47
2022-12-09T19:41:53.915Z,99602.06
2022-12-09T19:44:44.243Z,99602.06
2022-12-09T19:47:11.011Z,99606.38
2022-12-09T19:49:41.287Z,99612.41
2022-12-09T19:52:09.838Z,99609.81
2022-12-09T19:54:39.523Z,99611.59
2022-12-09T19:57:08.082Z,99609.84
2022-12-09T19:59:37.581Z,99614.16
2022-12-09T20:02:07.853Z,99609.03
2022-12-09T20:04:51.733Z,99618.50
2022-12-09T20:07:20.829Z,99610.75
2022-12-09T20:09:50.707Z,99616.78
2022-12-09T20:12:19.394Z,99622.84
2022-12-09T20:14:47.874Z,99620.25
2022-12-09T20:17:17.303Z,99621.97
2022-12-09T20:19:45.878Z,99628.00
2022-12-09T20:22:14.405Z,99630.63
2022-12-09T20:24:44.066Z,99628.88
2022-12-09T20:27:13.704Z,99632.34
2022-12-09T20:29:42.235Z,99633.22
2022-12-09T20:32:10.917Z,99633.22
2022-12-09T20:34:39.775Z,99643.56
2022-12-09T20:37:08.285Z,99636.66
2022-12-09T20:39:36.956Z,99645.28
2022-12-09T20:42:05.500Z,99642.72
2022-12-09T20:44:35.116Z,99643.56
2022-12-09T20:47:03.691Z,99636.69
2022-12-09T20:49:32.221Z,99644.44
2022-12-09T20:52:00.929Z,99654.78
2022-12-09T20:54:29.242Z,99648.75
2022-12-09T20:56:57.747Z,99659.09
2022-12-09T20:59:26.280Z,99654.81
2022-12-09T21:01:55.909Z,99654.81
2022-12-09T21:04:24.493Z,99652.22
2022-12-09T21:06:53.229Z,99660.84
2022-12-09T21:09:26.968Z,99666.91
2022-12-09T21:11:56.975Z,99659.13
2022-12-09T21:14:31.123Z,99668.63
2022-12-09T21:17:04.275Z,99666.91
2022-12-09T21:19:34.177Z,99668.66
2022-12-09T21:22:02.403Z,99664.34
2022-12-09T21:24:30.898Z,99668.63
2022-12-09T21:27:00.909Z,99670.38
2022-12-09T21:29:32.280Z,99666.03
2022-12-09T21:32:02.951Z,99674.69
2022-12-09T21:34:31.707Z,99667.81
2022-12-09T21:37:00.323Z,99670.41
2022-12-09T21:39:29.189Z,99676.41
2022-12-09T21:41:57.700Z,99672.97
2022-12-09T21:44:27.011Z,99673.81
2022-12-09T21:46:55.629Z,99675.56
2022-12-09T21:49:25.543Z,99676.44
2022-12-09T21:51:55.236Z,99674.72
2022-12-09T21:54:23.737Z,99673.88
2022-12-09T21:56:52.294Z,99673.03
2022-12-09T21:59:20.714Z,99670.44
2022-12-09T22:01:49.027Z,99673.91
2022-12-09T22:04:18.675Z,99669.56
2022-12-09T22:06:51.243Z,99668.72
2022-12-09T22:09:20.974Z,99673.88
2022-12-09T22:11:49.622Z,99678.22
2022-12-09T22:14:18.437Z,99676.47
2022-12-09T22:16:47.284Z,99665.31
2022-12-09T22:19:19.694Z,99671.31
2022-12-09T22:21:50.379Z,99671.31
2022-12-09T22:24:19.171Z,99676.50
2022-12-09T22:26:47.790Z,99672.19
2022-12-09T22:29:18.235Z,99673.06
2022-12-09T22:31:47.589Z,99677.38
2022-12-09T22:34:18.645Z,99684.28
2022-12-09T22:36:49.441Z,99677.38
2022-12-09T22:39:21.493Z,99681.72
2022-12-09T22:41:50.497Z,99686.88
2022-12-09T22:44:20.923Z,99685.19
2022-12-09T22:46:50.018Z,99685.19
2022-12-09T22:49:18.844Z,99686.06
2022-12-09T22:51:49.387Z,99694.66
2022-12-09T22:54:18.156Z,99692.06
2022-12-09T22:56:46.688Z,99692.06
2022-12-09T22:59:16.242Z,99688.63
2022-12-09T23:01:47.281Z,99692.09
2022-12-09T23:04:18.743Z,99684.34
2022-12-09T23:06:50.073Z,99685.22
2022-12-09T23:09:21.920Z,99691.25
2022-12-09T23:11:50.947Z,99702.44
2022-12-09T23:14:19.799Z,99703.31
2022-12-09T23:16:48.119Z,99701.59
2022-12-09T23:19:16.625Z,99696.41
2022-12-09T23:21:45.433Z,99699.03
2022-12-09T23:24:24.469Z,99699.03
2022-12-09T23:26:56.374Z,99694.69
2022-12-09T23:29:25.016Z,99694.69
2022-12-09T23:31:53.730Z,99699.88
2022-12-09T23:34:22.406Z,99699.03
2022-12-09T23:36:50.954Z,99696.44
2022-12-09T23:39:20.941Z,99694.72
2022-12-09T23:41:49.631Z,99696.44
2022-12-09T23:44:20.055Z,99691.28
2022-12-09T23:46:48.861Z,99699.03
2022-12-09T23:49:17.878Z,99699.88
2022-12-09T23:51:46.319Z,99697.28
2022-12-09T23:54:17.355Z,99696.44
2022-12-09T23:56:50.597Z,99697.31
2022-12-09T23:59:21.604Z,99697.31
